Observations
| Time | Sensor | AQI | SAQ | Temp °C | Hum % | Pres Pa | CO μg/m³ | H₂S μg/m³ | NO μg/m³ | NO₂ μg/m³ | O₃ μg/m³ | SO₂ μg/m³ | CO₂e PPM | VOC PPM | PM1 μg/m³ | PM2.5 μg/m³ | PM4 μg/m³ | PM10 μg/m³ | TPS µm |
|---|---|---|---|---|---|---|---|---|---|---|---|---|---|---|---|---|---|---|---|
| Thursday 13 August 2026 | |||||||||||||||||||
| 05:29 | Trim Patrick St | 2 | 20.8 | 77 | 38,460 | 0 | 0 | 1.56 | 5.39 | 26.82 | 4.54 | 5.43 | 9.65 | 10.61 | |||||
| 05:29 | Trim Market St | 2 | 21.4 | 74 | 37,899 | 0 | 0 | 1.35 | 5.62 | 40.14 | 0 | 3.56 | 5.28 | 8.13 | |||||
| 05:28 | Trim Patrick St | 2 | 20.9 | 77 | 38,460 | 0 | 0 | 1.64 | 0.32 | 34.78 | 4.56 | 4.57 | 9.64 | 10.6 | |||||
| 05:28 | Trim Market St | 2 | 21.3 | 74 | 37,947 | 0 | 0 | 1.34 | 1.8 | 40.66 | 0 | 2.14 | 2.88 | 5.11 | |||||
| 05:27 | Trim Patrick St | 2 | 20.9 | 77 | 38,460 | 0 | 2.21 | 1.57 | 10.59 | 29.29 | 4.58 | 4.57 | 8.94 | 9.83 | |||||
| 05:27 | Trim Market St | 2 | 21.3 | 74 | 37,755 | 0 | 0 | 1.4 | 2.95 | 39.22 | 0 | 2.85 | 4.8 | 8.13 | |||||
| 05:26 | Trim Patrick St | 2 | 20.9 | 77 | 38,460 | 0 | 4 | 1.41 | 12.55 | 32.27 | 4.28 | 5.43 | 9.65 | 10.61 | |||||
| 05:26 | Trim Market St | 2 | 21.4 | 74 | 37,699 | 0 | 0 | 1.36 | 2 | 38.36 | 0 | 2.85 | 4.32 | 6.93 | |||||
| 05:25 | Trim Patrick St | 2 | 20.9 | 77 | 38,460 | 0 | 4.4 | 1.38 | 15.21 | 27.46 | 3.97 | 4.57 | 7.52 | 8.27 | |||||
| 05:25 | Trim Market St | 2 | 21.4 | 74 | 37,550 | 0 | 0 | 1.44 | 2.83 | 39.94 | 0 | 2.85 | 3.84 | 6.32 | |||||
| 05:24 | Trim Patrick St | 2 | 20.9 | 77 | 38,460 | 0 | 2.05 | 1.5 | 3.15 | 34.21 | 4.69 | 6.29 | 10.35 | 11.38 | |||||
| 05:23 | Trim Patrick St | 2 | 20.9 | 77 | 38,460 | 0 | 4.95 | 1.42 | 16.09 | 27.73 | 3.6 | 5.43 | 8.93 | 9.82 | |||||
| 05:23 | Trim Market St | 2 | 21.4 | 74 | 37,377 | 0 | 0 | 1.7 | 3.45 | 38.48 | 0 | 2.85 | 3.84 | 6.32 | |||||
| 05:22 | Trim Patrick St | 2 | 20.9 | 77 | 38,460 | 0 | 0.71 | 1.44 | 0 | 36 | 5.28 | 4.57 | 8.93 | 9.83 | |||||
| 05:22 | Trim Market St | 2 | 21.4 | 74 | 37,101 | 0 | 0 | 1.69 | 1.48 | 47.57 | 0 | 3.56 | 4.8 | 7.53 | |||||
| 05:21 | Trim Patrick St | 2 | 20.9 | 77 | 38,460 | 0 | 4.26 | 1.43 | 15.03 | 21.63 | 3.77 | 4.57 | 8.93 | 9.83 | |||||
| 05:20 | Trim Patrick St | 2 | 20.9 | 77 | 38,460 | 0 | 4.34 | 1.5 | 15.42 | 24.7 | 4.02 | 5.43 | 10.38 | 11.41 | |||||
| 05:19 | Trim Market St | 2 | 21.4 | 74 | 36,773 | 0 | 0 | 1.52 | 2.62 | 36.43 | 0 | 2.14 | 4.32 | 7.53 | |||||
| 05:19 | Trim Patrick St | 2 | 20.9 | 77 | 38,460 | 0 | 3.47 | 1.51 | 11.59 | 32.68 | 4.39 | 5.43 | 8.93 | 9.83 | |||||
| 05:18 | Trim Patrick St | 2 | 20.9 | 77 | 38,460 | 0 | 3.58 | 1.5 | 17.3 | 22.96 | 3.62 | 4.57 | 8.22 | 9.04 | |||||